Overview Statistics Trail Chart Weather Telemetry Raw packets
 

This is the latest recevied weather packets stored in our database for station/object K5OLV. If no packets are shown the sender has not sent any weather packets the latest 10 day(s).

<< 72 73 74 75 76 77 78 >>
Time Temp. Humidity Pressure Rain* Wind** Luminosity Snow
1788099895 26.11° C 84% 1020.8 hPa 0 mm - 510 W/m² -
1788099590 25° C 88% 1021 hPa 0 mm - 504 W/m² -
1788099286 25° C 88% 1020.9 hPa 0 mm - 493 W/m² -
1788098981 24.44° C 89% 1020.9 hPa 0 mm - 463 W/m² -
1788098676 23.89° C 91% 1020.8 hPa 0 mm - 414 W/m² -
1788098375 23.33° C 93% 1021.1 hPa 0 mm - 393 W/m² -
1788098071 23.89° C 92% 1020.8 hPa 0 mm - 143 W/m² -
1788097766 24.44° C 90% 1020.8 hPa 0 mm - 134 W/m² -
1788097462 24.44° C 89% 1020.7 hPa 0 mm - 218 W/m² -
1788097157 24.44° C 90% 1020.6 hPa 0 mm - 305 W/m² -
1788096853 24.44° C 91% 1020.5 hPa 0 mm - 235 W/m² -
1788096548 23.89° C 91% 1020.9 hPa 0 mm - 251 W/m² -
1788096244 23.89° C 92% 1020.5 hPa 0 mm - 251 W/m² -
1788095943 23.89° C 93% 1020.6 hPa 0 mm - 238 W/m² -
1788095642 23.33° C 94% 1020.5 hPa 0 mm - 78 W/m² -
1788095348 23.33° C 94% 1020.6 hPa 0 mm - 201 W/m² -
1788095033 22.78° C 95% 1020.7 hPa 0 mm - 66 W/m² -
1788094732 22.78° C 95% 1020.4 hPa 0 mm - 61 W/m² -
1788094428 22.78° C 95% 1020.6 hPa 0 mm - 61 W/m² -
1788094125 22.78° C 96% 1020.5 hPa 0 mm - 61 W/m² -
1788093820 22.22° C 96% 1020.1 hPa 0 mm - 60 W/m² -
1788093517 22.22° C 96% 1020.1 hPa 0 mm - 53 W/m² -
1788093213 22.22° C 96% 1020.1 hPa 0 mm - 49 W/m² -
1788092910 21.67° C 97% 1020.1 hPa 0 mm - 48 W/m² -
1788092605 21.67° C 97% 1020.1 hPa 0 mm - 44 W/m² -

* Rain latest hour (hover to see other rain measurements)
** Current wind speed in m/s (hover to see current wind gust speed)